Terminal Aerodrome Forecast
Issued by NWS

Home | Current Version | Previous Version | Text Only | Print | Product List | Glossary On
Versions: 1 2 3 4 5 6 7 8 9 10 11 12 13 14 15 16
000
FTUS44 KTSA 300500
TAFBVO
TAF
KBVO 300520Z 3006/3106 VRB03KT P6SM BKN035
      TEMPO 3006/3009 2SM BR SKC
     FM300900 35010KT P6SM BKN025
      TEMPO 3009/3013 3SM BR BKN015
     FM301800 35007KT P6SM OVC040
     FM310000 01003KT P6SM OVC250=

USA.gov is the U.S. government's official web portal to all federal, state and local government web resources and services.